Time;durP1;ratioP1;P1;durP2;ratioP2;P2;SDS_P1;SDS_P2;PMS_P1;PMS_P2;Temp;Humidity;BMP_temperature;BMP_pressure;BME280_temperature;BME280_humidity;BME280_pressure;Samples;Min_cycle;Max_cycle;Signal;HPM_P1;HPM_P2
2021/07/29 00:00:20;;;;;;;;;;;20.60;99.90;;;;;;2092799;28;754;-56
2021/07/29 00:01:39;;;;;;;;;;;20.60;99.90;;;;;;2088928;28;736;-58
2021/07/29 00:02:58;;;;;;;;;;;20.60;99.90;;;;;;2085710;28;774;-54
2021/07/29 00:04:17;;;;;;;;;;;20.70;99.90;;;;;;2089314;28;724;-56
2021/07/29 00:05:37;;;;;;;;;;;20.70;99.90;;;;;;2089613;28;753;-59
2021/07/29 00:06:56;;;;;;;;;;;20.70;99.90;;;;;;2080364;28;1981;-55
2021/07/29 00:08:16;;;;;;;;;;;20.60;99.90;;;;;;2085211;28;798;-61
2021/07/29 00:09:36;;;;;;;;;;;20.60;99.90;;;;;;2084150;28;748;-57
2021/07/29 00:10:55;;;;;;;;;;;20.60;99.90;;;;;;2088477;28;808;-56
2021/07/29 00:12:14;;;;;;;;;;;20.70;99.90;;;;;;2080304;28;1338;-60
2021/07/29 00:13:33;;;;;;;;;;;20.60;99.90;;;;;;2085846;28;1027;-58
2021/07/29 00:14:53;;;;;;;;;;;20.60;99.90;;;;;;2088611;28;806;-58
2021/07/29 00:16:12;;;;;;;;;;;20.60;99.90;;;;;;2087342;28;1514;-55
2021/07/29 00:19:13;;;;;;;;;;;20.60;99.90;;;;;;2089135;28;2205;-59
2021/07/29 00:20:33;;;;;;;;;;;20.60;99.90;;;;;;2090173;28;1470;-56
2021/07/29 00:21:52;;;;;;;;;;;20.60;99.90;;;;;;2090986;28;940;-56
2021/07/29 00:23:11;;;;;;;;;;;20.60;99.90;;;;;;2094873;28;917;-55
2021/07/29 00:24:31;;;;;;;;;;;20.60;99.90;;;;;;2089277;28;1919;-55
2021/07/29 00:25:50;;;;;;;;;;;20.60;99.90;;;;;;2096353;28;951;-55
2021/07/29 00:27:09;;;;;;;;;;;20.60;99.90;;;;;;2092827;28;1988;-56
2021/07/29 00:28:28;;;;;;;;;;;20.60;99.90;;;;;;2098354;28;856;-59
2021/07/29 00:29:54;;;;;;;;;;;20.60;99.90;;;;;;2103731;28;717;-56
2021/07/29 00:31:13;;;;;;;;;;;20.60;99.90;;;;;;2090384;28;733;-60
2021/07/29 00:32:32;;;;;;;;;;;20.60;99.90;;;;;;2095570;28;767;-56
2021/07/29 00:33:51;;;;;;;;;;;20.60;99.90;;;;;;2098339;28;1000;-61
2021/07/29 00:35:14;;;;;;;;;;;20.60;99.90;;;;;;2095232;28;1737;-58
2021/07/29 00:36:34;;;;;;;;;;;20.60;99.90;;;;;;2079151;28;759;-57
2021/07/29 00:38:00;;;;;;;;;;;20.60;99.90;;;;;;2090680;28;2025;-57
2021/07/29 00:39:19;;;;;;;;;;;20.60;99.90;;;;;;2084748;28;1153;-58
2021/07/29 00:40:39;;;;;;;;;;;20.60;99.90;;;;;;2108624;28;1016;-56
2021/07/29 00:41:58;;;;;;;;;;;20.50;99.90;;;;;;2105240;28;795;-55
2021/07/29 00:43:17;;;;;;;;;;;20.60;99.90;;;;;;2098255;28;727;-56
2021/07/29 00:44:37;;;;;;;;;;;20.60;99.90;;;;;;2098971;28;1110;-55
2021/07/29 00:45:58;;;;;;;;;;;20.60;99.90;;;;;;2094623;28;1603;-56
2021/07/29 00:47:17;;;;;;;;;;;20.60;99.90;;;;;;2081504;28;2009;-58
2021/07/29 00:48:36;;;;;;;;;;;20.60;99.90;;;;;;2078663;28;1625;-58
2021/07/29 00:49:55;;;;;;;;;;;20.60;99.90;;;;;;2083594;28;1974;-56
2021/07/29 00:51:15;;;;;;;;;;;20.60;99.90;;;;;;2087158;28;727;-55
2021/07/29 00:52:34;;;;;;;;;;;20.60;99.90;;;;;;2090238;28;775;-56
2021/07/29 00:53:53;;;;;;;;;;;20.60;99.90;;;;;;2089905;28;731;-58
2021/07/29 00:55:12;;;;;;;;;;;20.60;99.90;;;;;;2095168;28;727;-56
2021/07/29 00:56:32;;;;;;;;;;;20.60;99.90;;;;;;2098436;28;1357;-59
2021/07/29 00:57:51;;;;;;;;;;;20.50;99.90;;;;;;2092939;28;720;-56
2021/07/29 00:59:10;;;;;;;;;;;20.60;99.90;;;;;;2081957;28;753;-57
2021/07/29 01:00:30;;;;;;;;;;;20.50;99.90;;;;;;2081506;28;760;-58
2021/07/29 01:01:49;;;;;;;;;;;20.60;99.90;;;;;;2082536;28;722;-56
2021/07/29 01:03:08;;;;;;;;;;;20.60;99.90;;;;;;2098342;28;711;-57
2021/07/29 01:04:27;;;;;;;;;;;20.60;99.90;;;;;;2090700;28;1551;-59
2021/07/29 01:05:46;;;;;;;;;;;20.50;99.90;;;;;;2089565;28;1637;-61
2021/07/29 01:07:06;;;;;;;;;;;20.50;99.90;;;;;;2093177;28;1890;-55
2021/07/29 01:08:25;;;;;;;;;;;20.50;99.90;;;;;;2097241;28;1135;-56
2021/07/29 01:09:44;;;;;;;;;;;20.50;99.90;;;;;;2082270;28;1009;-56
2021/07/29 01:11:03;;;;;;;;;;;20.50;99.90;;;;;;2094731;28;706;-58
2021/07/29 01:12:23;;;;;;;;;;;20.50;99.90;;;;;;2098304;28;1123;-58
2021/07/29 01:13:42;;;;;;;;;;;20.50;99.90;;;;;;2096662;28;1118;-58
2021/07/29 01:15:01;;;;;;;;;;;20.50;99.90;;;;;;2078626;28;720;-57
2021/07/29 01:16:20;;;;;;;;;;;20.50;99.90;;;;;;2078114;28;1964;-57
2021/07/29 01:17:40;;;;;;;;;;;20.50;99.90;;;;;;2086266;28;1414;-57
2021/07/29 01:18:59;;;;;;;;;;;20.50;99.90;;;;;;2090105;28;693;-58
2021/07/29 01:20:19;;;;;;;;;;;20.50;99.90;;;;;;2089444;28;714;-57
2021/07/29 01:21:39;;;;;;;;;;;20.50;99.90;;;;;;2086828;28;1085;-55
2021/07/29 01:22:58;;;;;;;;;;;20.50;99.90;;;;;;2086339;28;742;-58
2021/07/29 01:24:17;;;;;;;;;;;20.50;99.90;;;;;;2086702;28;723;-55
2021/07/29 01:25:36;;;;;;;;;;;20.50;99.90;;;;;;2090260;28;760;-59
2021/07/29 01:26:55;;;;;;;;;;;20.50;99.90;;;;;;2090263;28;1922;-56
2021/07/29 01:28:15;;;;;;;;;;;20.50;99.90;;;;;;2089301;28;1739;-59
2021/07/29 01:29:34;;;;;;;;;;;20.50;99.90;;;;;;2090449;28;1685;-57
2021/07/29 01:30:53;;;;;;;;;;;20.50;99.90;;;;;;2089386;28;757;-55
2021/07/29 01:32:13;;;;;;;;;;;20.50;99.90;;;;;;2089837;28;733;-58
2021/07/29 01:33:32;;;;;;;;;;;20.50;99.90;;;;;;2080996;28;1509;-58
2021/07/29 01:34:51;;;;;;;;;;;20.50;99.90;;;;;;2099099;28;817;-56
2021/07/29 01:36:11;;;;;;;;;;;20.50;99.90;;;;;;2092248;28;900;-57
2021/07/29 01:37:30;;;;;;;;;;;20.50;99.90;;;;;;2091386;28;1365;-59
2021/07/29 01:38:49;;;;;;;;;;;20.50;99.90;;;;;;2090362;28;917;-60
2021/07/29 01:40:09;;;;;;;;;;;20.50;99.90;;;;;;2093165;28;1015;-59
2021/07/29 01:41:28;;;;;;;;;;;20.50;99.90;;;;;;2097248;28;1663;-56
2021/07/29 01:42:47;;;;;;;;;;;20.50;99.90;;;;;;2089599;28;777;-61
2021/07/29 01:44:06;;;;;;;;;;;20.50;99.90;;;;;;2097929;28;760;-57
2021/07/29 01:45:25;;;;;;;;;;;20.50;99.90;;;;;;2092917;28;720;-59
2021/07/29 01:46:45;;;;;;;;;;;20.50;99.90;;;;;;2085106;28;1361;-55
2021/07/29 01:48:04;;;;;;;;;;;20.50;99.90;;;;;;2084347;28;1720;-59
2021/07/29 01:49:23;;;;;;;;;;;20.40;99.90;;;;;;2090389;28;993;-54
2021/07/29 01:50:46;;;;;;;;;;;20.50;99.90;;;;;;2089210;28;796;-58
2021/07/29 01:52:05;;;;;;;;;;;20.50;99.90;;;;;;2089541;28;2009;-58
2021/07/29 01:53:24;;;;;;;;;;;20.40;99.90;;;;;;2106390;28;712;-58
2021/07/29 01:54:43;;;;;;;;;;;20.40;99.90;;;;;;2092764;28;805;-59
2021/07/29 01:56:06;;;;;;;;;;;20.40;99.90;;;;;;2086475;28;766;-54
2021/07/29 01:57:25;;;;;;;;;;;20.40;99.90;;;;;;2089817;28;1397;-54
2021/07/29 01:58:44;;;;;;;;;;;20.40;99.90;;;;;;2089541;28;728;-55
2021/07/29 02:00:04;;;;;;;;;;;20.40;99.90;;;;;;2093877;28;1697;-57
2021/07/29 02:01:32;;;;;;;;;;;20.40;99.90;;;;;;2091907;28;1704;-54
2021/07/29 02:02:51;;;;;;;;;;;20.40;99.90;;;;;;2081264;28;729;-56
2021/07/29 02:04:10;;;;;;;;;;;20.40;99.90;;;;;;2086479;28;974;-57
2021/07/29 02:05:29;;;;;;;;;;;20.40;99.90;;;;;;2085104;28;802;-61
2021/07/29 02:06:48;;;;;;;;;;;20.40;99.90;;;;;;2089484;28;1969;-56
2021/07/29 02:08:07;;;;;;;;;;;20.40;99.90;;;;;;2091676;28;1006;-60
2021/07/29 02:09:27;;;;;;;;;;;20.40;99.90;;;;;;2083142;28;1020;-60
2021/07/29 02:10:46;;;;;;;;;;;20.40;99.90;;;;;;2094355;28;725;-56
2021/07/29 02:12:06;;;;;;;;;;;20.40;99.90;;;;;;2093340;28;1433;-58
2021/07/29 02:13:25;;;;;;;;;;;20.40;99.90;;;;;;2089361;28;760;-60
2021/07/29 02:14:44;;;;;;;;;;;20.40;99.90;;;;;;2085993;28;1857;-58
2021/07/29 02:16:09;;;;;;;;;;;20.40;99.90;;;;;;2086343;28;745;-56
2021/07/29 02:17:29;;;;;;;;;;;20.40;99.90;;;;;;2086811;28;1318;-56
2021/07/29 02:18:48;;;;;;;;;;;20.40;99.90;;;;;;2086375;28;723;-57
2021/07/29 02:20:07;;;;;;;;;;;20.40;99.90;;;;;;2089460;28;714;-56
2021/07/29 02:21:27;;;;;;;;;;;20.40;99.90;;;;;;2089628;28;729;-58
2021/07/29 02:22:46;;;;;;;;;;;20.40;99.90;;;;;;2080976;28;1031;-57
2021/07/29 02:24:06;;;;;;;;;;;20.40;99.90;;;;;;2085898;28;1427;-56
2021/07/29 02:25:25;;;;;;;;;;;20.40;99.90;;;;;;2086082;28;794;-57
2021/07/29 02:26:44;;;;;;;;;;;20.40;99.90;;;;;;2085917;28;1380;-56
2021/07/29 02:28:03;;;;;;;;;;;20.40;99.90;;;;;;2088973;28;738;-60
2021/07/29 02:29:23;;;;;;;;;;;20.40;99.90;;;;;;2097527;28;818;-57
2021/07/29 02:30:42;;;;;;;;;;;20.40;99.90;;;;;;2088694;28;1779;-56
2021/07/29 02:32:01;;;;;;;;;;;20.40;99.90;;;;;;2086013;28;1588;-57
2021/07/29 02:33:20;;;;;;;;;;;20.40;99.90;;;;;;2094477;28;702;-57
2021/07/29 02:34:39;;;;;;;;;;;20.40;99.90;;;;;;2089316;28;698;-56
2021/07/29 02:35:59;;;;;;;;;;;20.40;99.90;;;;;;2089591;28;713;-58
2021/07/29 02:37:20;;;;;;;;;;;20.40;99.90;;;;;;2097290;28;1502;-54
2021/07/29 02:38:39;;;;;;;;;;;20.40;99.90;;;;;;2096994;28;1078;-56
2021/07/29 02:39:59;;;;;;;;;;;20.40;99.90;;;;;;2085845;28;1080;-61
2021/07/29 02:41:19;;;;;;;;;;;20.40;99.90;;;;;;2098307;28;749;-56
2021/07/29 02:42:38;;;;;;;;;;;20.40;99.90;;;;;;2089872;28;1718;-58
2021/07/29 02:43:58;;;;;;;;;;;20.40;99.90;;;;;;2088888;28;744;-58
2021/07/29 02:45:17;;;;;;;;;;;20.40;99.90;;;;;;2077806;28;1981;-55
2021/07/29 02:46:36;;;;;;;;;;;20.40;99.90;;;;;;2094026;28;711;-57
2021/07/29 02:47:55;;;;;;;;;;;20.40;99.90;;;;;;2080847;28;710;-60
2021/07/29 02:49:15;;;;;;;;;;;20.30;99.90;;;;;;2085905;28;722;-57
2021/07/29 02:50:34;;;;;;;;;;;20.40;99.90;;;;;;2093714;28;815;-59
2021/07/29 02:51:53;;;;;;;;;;;20.30;99.90;;;;;;2092828;28;1587;-54
2021/07/29 02:53:12;;;;;;;;;;;20.30;99.90;;;;;;2088905;28;749;-55
2021/07/29 02:54:32;;;;;;;;;;;20.30;99.90;;;;;;2089246;28;696;-59
2021/07/29 02:55:57;;;;;;;;;;;20.30;99.90;;;;;;2089039;28;691;-54
2021/07/29 02:57:17;;;;;;;;;;;20.30;99.90;;;;;;2088782;28;1302;-56
2021/07/29 02:58:36;;;;;;;;;;;20.30;99.90;;;;;;2089427;28;1713;-59
2021/07/29 02:59:56;;;;;;;;;;;20.30;99.90;;;;;;2097153;28;787;-57
2021/07/29 03:01:15;;;;;;;;;;;20.30;99.90;;;;;;2097008;28;1699;-59
2021/07/29 03:02:34;;;;;;;;;;;20.30;99.90;;;;;;2080811;28;710;-60
2021/07/29 03:03:54;;;;;;;;;;;20.30;99.90;;;;;;2082684;28;734;-54
2021/07/29 03:05:13;;;;;;;;;;;20.40;99.90;;;;;;2085818;28;762;-58
2021/07/29 03:06:32;;;;;;;;;;;20.40;99.90;;;;;;2091088;28;1274;-58
2021/07/29 03:07:52;;;;;;;;;;;20.40;99.90;;;;;;2086721;28;940;-60
2021/07/29 03:09:12;;;;;;;;;;;20.40;99.90;;;;;;2090090;28;1050;-60
2021/07/29 03:10:32;;;;;;;;;;;20.40;99.90;;;;;;2100612;28;1682;-60
2021/07/29 03:11:51;;;;;;;;;;;20.40;99.90;;;;;;2097443;28;755;-59
2021/07/29 03:13:10;;;;;;;;;;;20.40;99.90;;;;;;2090910;28;1688;-60
2021/07/29 03:14:30;;;;;;;;;;;20.40;99.90;;;;;;2089090;28;802;-59
2021/07/29 03:15:49;;;;;;;;;;;20.40;99.90;;;;;;2077531;28;721;-59
2021/07/29 03:17:08;;;;;;;;;;;20.40;99.90;;;;;;2080416;28;1416;-56
2021/07/29 03:18:27;;;;;;;;;;;20.40;99.90;;;;;;2077410;28;717;-58
2021/07/29 03:19:46;;;;;;;;;;;20.40;99.90;;;;;;2081022;28;720;-55
2021/07/29 03:21:06;;;;;;;;;;;20.40;99.90;;;;;;2091316;28;1146;-57
2021/07/29 03:22:25;;;;;;;;;;;20.40;99.90;;;;;;2086566;28;1583;-58
2021/07/29 03:23:45;;;;;;;;;;;20.40;99.90;;;;;;2084682;28;1563;-59
2021/07/29 03:25:04;;;;;;;;;;;20.40;99.90;;;;;;2086851;28;1451;-57
2021/07/29 03:26:23;;;;;;;;;;;20.40;99.90;;;;;;2093756;28;1597;-60
2021/07/29 03:27:43;;;;;;;;;;;20.40;99.90;;;;;;2088321;28;1992;-57
2021/07/29 03:29:02;;;;;;;;;;;20.40;99.90;;;;;;2085886;28;720;-58
2021/07/29 03:30:22;;;;;;;;;;;20.30;99.90;;;;;;2082547;28;1052;-62
2021/07/29 03:31:41;;;;;;;;;;;20.40;99.90;;;;;;2077895;28;1223;-59
2021/07/29 03:33:00;;;;;;;;;;;20.40;99.90;;;;;;2086970;28;1297;-58
2021/07/29 03:34:20;;;;;;;;;;;20.40;99.90;;;;;;2084048;28;1220;-60
2021/07/29 03:35:39;;;;;;;;;;;20.40;99.90;;;;;;2088404;28;1048;-58
2021/07/29 03:36:59;;;;;;;;;;;20.40;99.90;;;;;;2090608;28;1421;-61
2021/07/29 03:38:18;;;;;;;;;;;20.40;99.90;;;;;;2085261;28;1333;-60
2021/07/29 03:39:37;;;;;;;;;;;20.40;99.90;;;;;;2085428;28;1286;-60
2021/07/29 03:40:57;;;;;;;;;;;20.30;99.90;;;;;;2087517;28;1396;-56
2021/07/29 03:42:18;;;;;;;;;;;20.40;99.90;;;;;;2087766;28;1200;-58
2021/07/29 03:43:38;;;;;;;;;;;20.40;99.90;;;;;;2089254;28;1128;-61
2021/07/29 03:44:57;;;;;;;;;;;20.40;99.90;;;;;;2087813;28;1393;-56
2021/07/29 03:46:16;;;;;;;;;;;20.30;99.90;;;;;;2088549;28;1139;-56
2021/07/29 03:47:36;;;;;;;;;;;20.40;99.90;;;;;;2083680;28;1906;-59
2021/07/29 03:48:56;;;;;;;;;;;20.40;99.90;;;;;;2084277;28;1757;-60
2021/07/29 03:50:16;;;;;;;;;;;20.40;99.90;;;;;;2088333;28;1410;-57
2021/07/29 03:51:36;;;;;;;;;;;20.40;99.90;;;;;;2089374;28;1239;-61
2021/07/29 03:52:56;;;;;;;;;;;20.30;99.90;;;;;;2088344;28;1401;-59
2021/07/29 03:54:15;;;;;;;;;;;20.40;99.90;;;;;;2097567;28;1210;-60
2021/07/29 03:55:34;;;;;;;;;;;20.40;99.90;;;;;;2082493;28;1218;-58
2021/07/29 03:56:53;;;;;;;;;;;20.40;99.90;;;;;;2083874;28;1464;-58
2021/07/29 03:58:13;;;;;;;;;;;20.40;99.90;;;;;;2088513;28;1193;-59
2021/07/29 03:59:32;;;;;;;;;;;20.40;99.90;;;;;;2083962;28;1382;-60
2021/07/29 04:00:54;;;;;;;;;;;20.30;99.90;;;;;;2084306;28;1237;-57
2021/07/29 04:02:14;;;;;;;;;;;20.40;99.90;;;;;;2093796;28;1223;-57
2021/07/29 04:03:33;;;;;;;;;;;20.40;99.90;;;;;;2087950;28;1163;-60
2021/07/29 04:04:52;;;;;;;;;;;20.30;99.90;;;;;;2088501;28;1335;-57
2021/07/29 04:06:15;;;;;;;;;;;20.40;99.90;;;;;;2088752;28;1366;-56
2021/07/29 04:07:34;;;;;;;;;;;20.40;99.90;;;;;;2087887;28;1906;-57
2021/07/29 04:08:53;;;;;;;;;;;20.40;99.90;;;;;;2087442;28;1661;-59
2021/07/29 04:10:12;;;;;;;;;;;20.30;99.90;;;;;;2083813;28;1195;-56
2021/07/29 04:11:32;;;;;;;;;;;20.40;99.90;;;;;;2089210;28;1213;-57
2021/07/29 04:12:51;;;;;;;;;;;20.30;99.90;;;;;;2086142;28;1361;-58
2021/07/29 04:14:10;;;;;;;;;;;20.30;99.90;;;;;;2085189;28;1342;-54
2021/07/29 04:15:30;;;;;;;;;;;20.30;99.90;;;;;;2089487;28;1191;-56
2021/07/29 04:16:53;;;;;;;;;;;20.20;99.90;;;;;;2089371;28;1431;-56
2021/07/29 04:18:12;;;;;;;;;;;20.10;99.90;;;;;;2080910;28;1181;-59
2021/07/29 04:19:32;;;;;;;;;;;20.00;99.90;;;;;;2086842;28;1049;-60
2021/07/29 04:20:51;;;;;;;;;;;19.90;99.90;;;;;;2096720;28;763;-57
2021/07/29 04:22:10;;;;;;;;;;;19.90;99.90;;;;;;2087650;28;1524;-60
2021/07/29 04:23:29;;;;;;;;;;;19.90;99.90;;;;;;2090343;28;1234;-57
2021/07/29 04:24:49;;;;;;;;;;;19.90;99.90;;;;;;2091134;28;1262;-58
2021/07/29 04:26:08;;;;;;;;;;;20.00;99.90;;;;;;2089441;28;1108;-58
2021/07/29 04:27:27;;;;;;;;;;;20.00;99.90;;;;;;2090057;28;1934;-56
2021/07/29 04:28:46;;;;;;;;;;;20.00;99.90;;;;;;2088902;28;1367;-55
2021/07/29 04:30:06;;;;;;;;;;;20.00;99.90;;;;;;2087538;28;1310;-57
2021/07/29 04:31:25;;;;;;;;;;;20.10;99.90;;;;;;2100876;28;1151;-59
2021/07/29 04:32:44;;;;;;;;;;;20.10;99.90;;;;;;2091503;28;1383;-57
2021/07/29 04:34:04;;;;;;;;;;;20.10;99.90;;;;;;2085908;28;1184;-59
2021/07/29 04:35:23;;;;;;;;;;;20.10;99.90;;;;;;2089529;28;1158;-58
2021/07/29 04:36:42;;;;;;;;;;;20.10;99.90;;;;;;2091818;28;1552;-60
2021/07/29 04:38:02;;;;;;;;;;;20.10;99.90;;;;;;2086448;28;1343;-57
2021/07/29 04:39:21;;;;;;;;;;;20.10;99.90;;;;;;2100919;28;1155;-59
2021/07/29 04:40:40;;;;;;;;;;;20.20;99.90;;;;;;2080514;28;1094;-56
2021/07/29 04:41:59;;;;;;;;;;;20.20;99.90;;;;;;2085132;28;1045;-59
2021/07/29 04:43:18;;;;;;;;;;;20.20;99.90;;;;;;2088411;28;1261;-57
2021/07/29 04:44:38;;;;;;;;;;;20.20;99.90;;;;;;2086882;28;1365;-60
2021/07/29 04:46:00;;;;;;;;;;;20.20;99.90;;;;;;2096521;28;1162;-57
2021/07/29 04:47:19;;;;;;;;;;;20.20;99.90;;;;;;2097612;28;1898;-57
2021/07/29 04:48:39;;;;;;;;;;;20.20;99.90;;;;;;2091344;28;1399;-56
2021/07/29 04:49:58;;;;;;;;;;;20.20;99.90;;;;;;2095795;28;1511;-60
2021/07/29 04:51:17;;;;;;;;;;;20.20;99.90;;;;;;2091994;28;1136;-58
2021/07/29 04:52:36;;;;;;;;;;;20.20;99.90;;;;;;2090395;28;1406;-57
2021/07/29 04:53:55;;;;;;;;;;;20.20;99.90;;;;;;2091998;28;1218;-56
2021/07/29 04:55:15;;;;;;;;;;;20.20;99.90;;;;;;2086161;28;1067;-56
2021/07/29 04:56:34;;;;;;;;;;;20.20;99.90;;;;;;2096911;28;1169;-57
2021/07/29 04:57:53;;;;;;;;;;;20.20;99.90;;;;;;2088883;28;1318;-59
2021/07/29 04:59:13;;;;;;;;;;;20.20;99.90;;;;;;2088921;28;1299;-60
2021/07/29 05:00:32;;;;;;;;;;;20.20;99.90;;;;;;2092393;28;1821;-58
2021/07/29 05:01:52;;;;;;;;;;;20.20;99.90;;;;;;2088898;28;1331;-56
2021/07/29 05:03:11;;;;;;;;;;;20.20;99.90;;;;;;2091674;28;1327;-61
2021/07/29 05:04:30;;;;;;;;;;;20.20;99.90;;;;;;2090669;28;1197;-57
2021/07/29 05:05:50;;;;;;;;;;;20.10;99.90;;;;;;2100000;28;1075;-55
2021/07/29 05:07:12;;;;;;;;;;;20.10;99.90;;;;;;2093385;28;1958;-57
2021/07/29 05:08:31;;;;;;;;;;;20.10;99.90;;;;;;2091482;28;1114;-59
2021/07/29 05:09:51;;;;;;;;;;;20.10;99.90;;;;;;2088106;28;897;-60
2021/07/29 05:11:10;;;;;;;;;;;20.10;99.90;;;;;;2089635;28;1134;-58
2021/07/29 05:12:29;;;;;;;;;;;20.10;99.90;;;;;;2088850;28;1346;-61
2021/07/29 05:13:51;;;;;;;;;;;20.10;99.90;;;;;;2089906;28;1069;-59
2021/07/29 05:15:10;;;;;;;;;;;20.10;99.90;;;;;;2099235;28;1509;-58
2021/07/29 05:16:29;;;;;;;;;;;20.10;99.90;;;;;;2094395;28;1182;-58
2021/07/29 05:17:54;;;;;;;;;;;20.10;99.90;;;;;;2097585;28;1457;-57
2021/07/29 05:19:13;;;;;;;;;;;20.10;99.90;;;;;;2088087;28;968;-61
2021/07/29 05:20:33;;;;;;;;;;;20.20;99.90;;;;;;2088144;28;1182;-58
2021/07/29 05:21:52;;;;;;;;;;;20.20;99.90;;;;;;2091670;28;1490;-60
2021/07/29 05:23:12;;;;;;;;;;;20.20;99.90;;;;;;2088775;28;1235;-58
2021/07/29 05:24:32;;;;;;;;;;;20.20;99.90;;;;;;2099663;28;1064;-58
2021/07/29 05:25:51;;;;;;;;;;;20.20;99.90;;;;;;2091118;28;1284;-57
2021/07/29 05:27:11;;;;;;;;;;;20.20;99.90;;;;;;2089996;28;1972;-60
2021/07/29 05:28:30;;;;;;;;;;;20.20;99.90;;;;;;2093660;28;1209;-58
2021/07/29 05:29:49;;;;;;;;;;;20.20;99.90;;;;;;2090627;28;1194;-59
2021/07/29 05:31:09;;;;;;;;;;;20.20;99.90;;;;;;2086153;28;1633;-59
2021/07/29 05:32:28;;;;;;;;;;;20.20;99.90;;;;;;2097161;28;1007;-55
2021/07/29 05:33:47;;;;;;;;;;;20.20;99.90;;;;;;2090742;28;1720;-57
2021/07/29 05:35:07;;;;;;;;;;;20.20;99.90;;;;;;2096702;28;1355;-59
2021/07/29 05:36:26;;;;;;;;;;;20.30;99.90;;;;;;2088555;28;1017;-61
2021/07/29 05:37:45;;;;;;;;;;;20.20;99.90;;;;;;2087691;28;1284;-59
2021/07/29 05:39:04;;;;;;;;;;;20.20;99.90;;;;;;2086625;28;1530;-59
2021/07/29 05:40:24;;;;;;;;;;;20.20;99.90;;;;;;2079298;28;1376;-58
2021/07/29 05:41:43;;;;;;;;;;;20.20;99.90;;;;;;2095405;28;1173;-59
2021/07/29 05:43:02;;;;;;;;;;;20.30;99.90;;;;;;2097807;28;1146;-56
2021/07/29 05:44:22;;;;;;;;;;;20.30;99.90;;;;;;2092214;28;1250;-58
2021/07/29 05:45:41;;;;;;;;;;;20.20;99.90;;;;;;2104259;28;981;-60
2021/07/29 05:47:01;;;;;;;;;;;20.30;99.90;;;;;;2079245;28;1985;-59
2021/07/29 05:48:20;;;;;;;;;;;20.30;99.90;;;;;;2093617;28;1146;-58
2021/07/29 05:49:39;;;;;;;;;;;20.20;99.90;;;;;;2091848;28;1144;-57
2021/07/29 05:51:00;;;;;;;;;;;20.20;99.90;;;;;;2099286;28;1285;-57
2021/07/29 05:52:19;;;;;;;;;;;20.10;99.90;;;;;;2088890;28;1037;-58
2021/07/29 05:53:39;;;;;;;;;;;20.00;99.90;;;;;;2085185;28;1345;-57
2021/07/29 05:54:58;;;;;;;;;;;20.00;99.90;;;;;;2087653;28;1224;-58
2021/07/29 05:56:17;;;;;;;;;;;20.00;99.90;;;;;;2086718;28;1088;-60
2021/07/29 05:57:36;;;;;;;;;;;20.10;99.90;;;;;;2090253;28;1369;-58
2021/07/29 05:58:56;;;;;;;;;;;20.10;99.90;;;;;;2083683;28;1200;-60
2021/07/29 06:00:15;;;;;;;;;;;20.10;99.90;;;;;;2085132;28;1415;-57
2021/07/29 06:01:34;;;;;;;;;;;20.20;99.90;;;;;;2092237;28;1046;-57
2021/07/29 06:02:54;;;;;;;;;;;20.20;99.90;;;;;;2089448;28;1002;-58
2021/07/29 06:04:14;;;;;;;;;;;20.20;99.90;;;;;;2088119;28;1333;-58
2021/07/29 06:05:33;;;;;;;;;;;20.20;99.90;;;;;;2086224;28;1104;-54
2021/07/29 06:06:52;;;;;;;;;;;20.20;99.90;;;;;;2089657;28;1426;-57
2021/07/29 06:08:12;;;;;;;;;;;20.20;99.90;;;;;;2088455;28;1235;-57
2021/07/29 06:09:32;;;;;;;;;;;20.30;99.90;;;;;;2089278;28;1315;-57
2021/07/29 06:10:51;;;;;;;;;;;20.30;99.90;;;;;;2092513;28;1408;-55
2021/07/29 06:12:10;;;;;;;;;;;20.30;99.90;;;;;;2089333;28;1102;-56
2021/07/29 06:13:30;;;;;;;;;;;20.30;99.90;;;;;;2086587;28;1228;-55
2021/07/29 06:14:51;;;;;;;;;;;20.30;99.90;;;;;;2097766;28;1227;-57
2021/07/29 06:16:12;;;;;;;;;;;20.30;99.90;;;;;;2079619;28;1266;-58
2021/07/29 06:17:34;;;;;;;;;;;20.30;99.90;;;;;;2074335;28;1387;-61
2021/07/29 06:19:04;;;;;;;;;;;20.40;99.90;;;;;;2077400;28;1462;-56
2021/07/29 06:20:23;;;;;;;;;;;20.40;99.90;;;;;;2085632;28;938;-56
2021/07/29 06:21:42;;;;;;;;;;;20.40;99.90;;;;;;2095248;28;1063;-60
2021/07/29 06:23:03;;;;;;;;;;;20.30;99.90;;;;;;2087189;28;1228;-57
2021/07/29 06:24:22;;;;;;;;;;;20.30;99.90;;;;;;2088007;28;1052;-56
2021/07/29 06:25:42;;;;;;;;;;;20.30;99.90;;;;;;2089806;28;1149;-58
2021/07/29 06:27:01;;;;;;;;;;;20.30;99.90;;;;;;2087396;28;1922;-60
2021/07/29 06:28:21;;;;;;;;;;;20.40;99.90;;;;;;2088177;28;1674;-57
2021/07/29 06:29:40;;;;;;;;;;;20.40;99.90;;;;;;2094808;28;952;-55
2021/07/29 06:31:00;;;;;;;;;;;20.40;99.90;;;;;;2079912;28;1050;-60
2021/07/29 06:32:20;;;;;;;;;;;20.40;99.90;;;;;;2083907;28;1152;-60
2021/07/29 06:33:39;;;;;;;;;;;20.40;99.90;;;;;;2086452;28;1045;-55
2021/07/29 06:34:58;;;;;;;;;;;20.40;99.90;;;;;;2088228;28;1151;-59
2021/07/29 06:36:18;;;;;;;;;;;20.40;99.90;;;;;;2097463;28;866;-56
2021/07/29 06:37:37;;;;;;;;;;;20.40;99.90;;;;;;2097807;28;1440;-56
2021/07/29 06:38:59;;;;;;;;;;;20.40;99.90;;;;;;2083216;28;1144;-57
2021/07/29 06:40:20;;;;;;;;;;;20.40;99.90;;;;;;2065456;28;969;-58
2021/07/29 06:41:39;;;;;;;;;;;20.40;99.90;;;;;;2079403;28;1131;-59
2021/07/29 06:42:59;;;;;;;;;;;20.40;99.90;;;;;;2094414;28;1529;-61
2021/07/29 06:44:18;;;;;;;;;;;20.50;99.90;;;;;;2092501;28;1351;-58
2021/07/29 06:45:38;;;;;;;;;;;20.40;99.90;;;;;;2089416;28;1056;-57
2021/07/29 06:46:58;;;;;;;;;;;20.40;99.90;;;;;;2087198;28;1450;-56
2021/07/29 06:48:17;;;;;;;;;;;20.40;99.90;;;;;;2085197;28;1192;-56
2021/07/29 06:49:37;;;;;;;;;;;20.40;99.90;;;;;;2078127;28;1119;-56
2021/07/29 06:50:56;;;;;;;;;;;20.40;99.90;;;;;;2084596;28;997;-55
2021/07/29 06:52:15;;;;;;;;;;;20.40;99.90;;;;;;2089569;28;1376;-60
2021/07/29 06:53:35;;;;;;;;;;;20.40;99.90;;;;;;2089170;28;929;-56
2021/07/29 06:54:54;;;;;;;;;;;20.40;99.90;;;;;;2075108;28;1273;-56
2021/07/29 06:56:14;;;;;;;;;;;20.40;99.90;;;;;;2082780;28;1040;-63
2021/07/29 06:57:35;;;;;;;;;;;20.40;99.90;;;;;;2085026;28;1547;-58
2021/07/29 06:58:54;;;;;;;;;;;20.50;99.90;;;;;;2091277;28;1175;-59
2021/07/29 07:00:14;;;;;;;;;;;20.50;99.90;;;;;;2088137;28;1217;-59
2021/07/29 07:01:33;;;;;;;;;;;20.40;99.90;;;;;;2080589;28;1191;-58
2021/07/29 07:02:53;;;;;;;;;;;20.50;99.90;;;;;;2082543;28;1116;-57
2021/07/29 07:04:12;;;;;;;;;;;20.50;99.90;;;;;;2088387;28;1235;-57
2021/07/29 07:05:31;;;;;;;;;;;20.50;99.90;;;;;;2089543;28;1191;-57
2021/07/29 07:06:54;;;;;;;;;;;20.50;99.90;;;;;;2088745;28;1435;-57
2021/07/29 07:08:13;;;;;;;;;;;20.50;99.90;;;;;;2085321;28;1117;-55
2021/07/29 07:09:32;;;;;;;;;;;20.50;99.90;;;;;;2097017;28;1341;-55
2021/07/29 07:10:55;;;;;;;;;;;20.60;99.90;;;;;;2077100;28;1533;-55
2021/07/29 07:12:15;;;;;;;;;;;20.60;99.90;;;;;;2077601;28;1860;-56
2021/07/29 07:13:34;;;;;;;;;;;20.60;99.90;;;;;;2082216;28;1002;-56
2021/07/29 07:14:53;;;;;;;;;;;20.60;99.90;;;;;;2088611;28;1606;-57
2021/07/29 07:16:13;;;;;;;;;;;20.60;99.90;;;;;;2080484;28;1068;-58
2021/07/29 07:17:32;;;;;;;;;;;20.60;99.90;;;;;;2079847;28;1520;-57
2021/07/29 07:18:52;;;;;;;;;;;20.60;99.90;;;;;;2082553;28;1087;-56
2021/07/29 07:20:11;;;;;;;;;;;20.60;99.90;;;;;;2076870;28;1151;-57
2021/07/29 07:21:31;;;;;;;;;;;20.60;99.90;;;;;;2084387;28;1411;-56
2021/07/29 07:22:51;;;;;;;;;;;20.60;99.90;;;;;;2089010;28;1217;-54
2021/07/29 07:24:10;;;;;;;;;;;20.60;99.90;;;;;;2088872;28;1388;-57
2021/07/29 07:25:29;;;;;;;;;;;20.60;99.90;;;;;;2088746;28;1533;-57
2021/07/29 07:26:48;;;;;;;;;;;20.60;99.90;;;;;;2084569;28;1368;-56
2021/07/29 07:28:08;;;;;;;;;;;20.60;99.90;;;;;;2086035;28;1229;-57
2021/07/29 07:29:27;;;;;;;;;;;20.60;99.90;;;;;;2075248;28;1258;-56
2021/07/29 07:30:46;;;;;;;;;;;20.60;99.90;;;;;;2081420;28;978;-56
2021/07/29 07:32:06;;;;;;;;;;;20.60;99.90;;;;;;2081767;28;982;-58
2021/07/29 07:33:26;;;;;;;;;;;20.60;99.90;;;;;;2084500;28;1082;-58
2021/07/29 07:34:45;;;;;;;;;;;20.60;99.90;;;;;;2084171;28;1355;-58
2021/07/29 07:36:05;;;;;;;;;;;20.60;99.90;;;;;;2086127;28;1191;-57
2021/07/29 07:37:24;;;;;;;;;;;20.60;99.90;;;;;;2098966;28;1634;-59
2021/07/29 07:38:43;;;;;;;;;;;20.60;99.90;;;;;;2094016;28;1035;-57
2021/07/29 07:40:03;;;;;;;;;;;20.60;99.90;;;;;;2070280;28;1430;-57
2021/07/29 07:41:22;;;;;;;;;;;20.60;99.90;;;;;;2070271;28;1111;-58
2021/07/29 07:42:43;;;;;;;;;;;20.50;99.90;;;;;;2076979;28;1303;-58
2021/07/29 07:44:03;;;;;;;;;;;20.60;99.90;;;;;;2075951;28;1230;-58
2021/07/29 07:45:29;;;;;;;;;;;20.60;99.90;;;;;;2065636;28;1746;-57
2021/07/29 07:46:51;;;;;;;;;;;20.60;99.90;;;;;;2083704;28;1428;-57
2021/07/29 07:48:10;;;;;;;;;;;20.60;99.90;;;;;;2088501;28;1251;-58
2021/07/29 07:49:30;;;;;;;;;;;20.60;99.90;;;;;;2086722;28;1189;-57
2021/07/29 07:50:49;;;;;;;;;;;20.60;99.90;;;;;;2097715;28;1126;-58
2021/07/29 07:52:09;;;;;;;;;;;20.60;99.90;;;;;;2088553;28;1225;-58
2021/07/29 07:53:38;;;;;;;;;;;20.60;99.90;;;;;;2087378;28;1043;-58